createdAt,value
2024-04-14T00:00:15.424Z,17.30
2024-04-14T00:02:42.612Z,17.30
2024-04-14T00:05:09.590Z,17.20
2024-04-14T00:07:37.994Z,17.20
2024-04-14T00:10:05.404Z,17.10
2024-04-14T00:12:32.372Z,17.10
2024-04-14T00:14:59.265Z,17.00
2024-04-14T00:17:26.319Z,17.00
2024-04-14T00:19:54.123Z,16.90
2024-04-14T00:22:22.141Z,16.90
2024-04-14T00:24:49.552Z,16.80
2024-04-14T00:27:16.491Z,16.70
2024-04-14T00:29:43.524Z,16.70
2024-04-14T00:32:10.503Z,16.60
2024-04-14T00:34:37.451Z,16.40
2024-04-14T00:37:05.546Z,16.40
2024-04-14T00:39:32.552Z,16.30
2024-04-14T00:42:00.097Z,16.20
2024-04-14T00:44:27.676Z,16.20
2024-04-14T00:46:55.863Z,16.10
2024-04-14T00:49:24.159Z,16.00
2024-04-14T00:51:51.779Z,16.00
2024-04-14T00:54:19.427Z,15.90
2024-04-14T00:56:48.141Z,15.90
2024-04-14T00:59:16.038Z,15.80
2024-04-14T01:01:43.080Z,15.80
2024-04-14T01:04:10.212Z,15.80
2024-04-14T01:06:37.685Z,15.70
2024-04-14T01:09:05.062Z,15.60
2024-04-14T01:11:32.147Z,15.60
2024-04-14T01:13:59.042Z,15.40
2024-04-14T01:16:25.904Z,15.30
2024-04-14T01:18:53.020Z,15.30
2024-04-14T01:21:20.195Z,15.20
2024-04-14T01:23:47.254Z,15.20
2024-04-14T01:26:14.105Z,15.20
2024-04-14T01:28:40.967Z,15.10
2024-04-14T01:31:08.001Z,15.00
2024-04-14T01:33:34.973Z,15.00
2024-04-14T01:36:01.871Z,15.00
2024-04-14T01:38:28.978Z,14.90
2024-04-14T01:40:55.866Z,14.90
2024-04-14T01:43:22.853Z,14.80
2024-04-14T01:45:49.972Z,14.80
2024-04-14T01:48:17.006Z,14.80
2024-04-14T01:50:44.010Z,14.70
2024-04-14T01:53:10.923Z,14.70
2024-04-14T01:55:37.879Z,14.60
2024-04-14T01:58:04.947Z,14.60
2024-04-14T02:00:32.140Z,14.60
2024-04-14T02:03:00.232Z,14.50
2024-04-14T02:05:27.190Z,14.40
2024-04-14T02:07:54.281Z,14.40
2024-04-14T02:10:21.300Z,14.40
2024-04-14T02:12:48.528Z,14.30
2024-04-14T02:15:15.725Z,14.30
2024-04-14T02:17:42.656Z,14.20
2024-04-14T02:20:11.819Z,14.20
2024-04-14T02:22:39.716Z,14.10
2024-04-14T02:25:06.722Z,14.00
2024-04-14T02:27:33.917Z,14.00
2024-04-14T02:30:00.787Z,14.00
2024-04-14T02:32:27.746Z,14.00
2024-04-14T02:34:54.875Z,14.00
2024-04-14T02:37:21.763Z,14.00
2024-04-14T02:39:48.829Z,14.00
2024-04-14T02:42:15.936Z,13.90
2024-04-14T02:44:42.797Z,14.00
2024-04-14T02:47:09.701Z,14.00
2024-04-14T02:49:36.931Z,14.00
2024-04-14T02:52:04.368Z,13.90
2024-04-14T02:54:31.297Z,14.00
2024-04-14T02:56:58.584Z,13.90
2024-04-14T02:59:25.528Z,13.90
2024-04-14T03:01:52.496Z,13.80
2024-04-14T03:04:22.418Z,13.80
2024-04-14T03:06:51.056Z,13.80
2024-04-14T03:09:17.981Z,13.70
2024-04-14T03:11:45.599Z,13.80
2024-04-14T03:14:12.484Z,13.90
2024-04-14T03:16:39.687Z,13.80
2024-04-14T03:19:06.708Z,13.80
2024-04-14T03:21:33.807Z,13.80
2024-04-14T03:24:00.944Z,13.80
2024-04-14T03:26:27.902Z,13.80
2024-04-14T03:28:56.356Z,13.90
2024-04-14T03:31:23.555Z,13.80
2024-04-14T03:33:50.681Z,13.80
2024-04-14T03:36:17.631Z,13.80
2024-04-14T03:38:44.677Z,13.90
2024-04-14T03:41:11.506Z,13.80
2024-04-14T03:43:38.454Z,13.80
2024-04-14T03:46:05.854Z,13.70
2024-04-14T03:48:32.880Z,13.80
2024-04-14T03:51:00.024Z,13.70
2024-04-14T03:53:26.957Z,13.70
2024-04-14T03:55:53.800Z,13.70
2024-04-14T03:58:20.860Z,13.60
2024-04-14T04:00:47.889Z,13.60
2024-04-14T04:03:14.906Z,13.50
2024-04-14T04:05:42.135Z,13.40
2024-04-14T04:08:09.639Z,13.40
2024-04-14T04:10:36.543Z,13.30
2024-04-14T04:13:03.778Z,13.30
2024-04-14T04:15:30.738Z,13.20
2024-04-14T04:17:57.718Z,13.20
2024-04-14T04:20:24.843Z,13.10
2024-04-14T04:22:51.869Z,13.10
2024-04-14T04:25:18.922Z,13.00
2024-04-14T04:27:45.972Z,13.00
2024-04-14T04:30:13.232Z,13.00
2024-04-14T04:32:40.730Z,13.00
2024-04-14T04:35:07.888Z,12.90
2024-04-14T04:37:34.770Z,12.90
2024-04-14T04:40:01.976Z,12.90
2024-04-14T04:42:28.946Z,12.90
2024-04-14T04:44:55.886Z,12.90
2024-04-14T04:47:23.172Z,12.90
2024-04-14T04:49:50.162Z,12.90
2024-04-14T04:52:17.040Z,13.00
2024-04-14T04:54:43.996Z,13.00
2024-04-14T04:57:10.910Z,13.00
2024-04-14T04:59:37.803Z,13.10
2024-04-14T05:02:04.998Z,13.20
2024-04-14T05:04:31.907Z,13.20
2024-04-14T05:07:00.070Z,13.30
2024-04-14T05:09:27.231Z,13.40
2024-04-14T05:11:54.198Z,13.50
2024-04-14T05:14:23.601Z,13.60
2024-04-14T05:16:51.081Z,13.60
2024-04-14T05:19:18.301Z,13.60
2024-04-14T05:21:47.470Z,13.70
2024-04-14T05:24:14.704Z,13.50
2024-04-14T05:26:41.631Z,13.60
2024-04-14T05:29:08.549Z,13.60
2024-04-14T05:31:35.668Z,13.60
2024-04-14T05:34:02.717Z,13.60
2024-04-14T05:36:29.769Z,13.60
2024-04-14T05:38:56.966Z,13.70
2024-04-14T05:41:23.937Z,13.70
2024-04-14T05:43:50.879Z,13.50
2024-04-14T05:46:18.031Z,13.40
2024-04-14T05:48:44.965Z,13.30
2024-04-14T05:51:11.907Z,13.30
2024-04-14T05:53:39.011Z,13.30
2024-04-14T05:56:06.970Z,13.30
2024-04-14T05:58:34.309Z,13.30
2024-04-14T06:01:08.415Z,13.40
2024-04-14T06:03:36.229Z,13.40
2024-04-14T06:06:03.346Z,13.50
2024-04-14T06:08:30.549Z,13.50
2024-04-14T06:10:59.125Z,13.80
2024-04-14T06:13:26.101Z,13.90
2024-04-14T06:15:53.286Z,14.20
2024-04-14T06:18:20.175Z,14.50
2024-04-14T06:20:47.156Z,15.60
2024-04-14T06:23:17.179Z,15.00
2024-04-14T06:25:47.116Z,14.90
2024-04-14T06:28:14.219Z,15.20
2024-04-14T06:30:41.196Z,15.20
2024-04-14T06:33:08.387Z,14.90
2024-04-14T06:35:37.193Z,15.60
2024-04-14T06:38:04.261Z,15.50
2024-04-14T06:40:31.121Z,15.10
2024-04-14T06:42:58.396Z,15.20
2024-04-14T06:45:25.453Z,15.80
2024-04-14T06:47:52.386Z,15.80
2024-04-14T06:50:19.506Z,16.30
2024-04-14T06:52:46.482Z,16.00
2024-04-14T06:55:14.071Z,15.90
2024-04-14T06:57:41.218Z,16.10
2024-04-14T07:00:09.104Z,16.00
2024-04-14T07:02:36.074Z,15.20
2024-04-14T07:05:03.326Z,14.40
2024-04-14T07:07:33.088Z,15.30
2024-04-14T07:10:01.842Z,14.70
2024-04-14T07:12:28.947Z,14.30
2024-04-14T07:14:55.884Z,14.40
2024-04-14T07:17:22.903Z,14.30
2024-04-14T07:19:49.804Z,14.00
2024-04-14T07:22:16.939Z,14.20
2024-04-14T07:24:45.167Z,14.50
2024-04-14T07:27:12.195Z,14.30
2024-04-14T07:29:39.894Z,14.20
2024-04-14T07:32:07.994Z,14.30
2024-04-14T07:34:34.908Z,14.70
2024-04-14T07:37:04.024Z,15.10
2024-04-14T07:39:32.411Z,14.90
2024-04-14T07:42:05.313Z,14.60
2024-04-14T07:44:32.573Z,14.90
2024-04-14T07:46:59.444Z,15.30
2024-04-14T07:49:26.435Z,15.20
2024-04-14T07:51:53.512Z,15.50
2024-04-14T07:54:20.489Z,15.70
2024-04-14T07:56:47.392Z,15.30
2024-04-14T07:59:14.466Z,15.20
2024-04-14T08:01:41.406Z,15.00
2024-04-14T08:04:08.805Z,15.40
2024-04-14T08:06:36.365Z,15.60
2024-04-14T08:09:03.404Z,15.10
2024-04-14T08:11:30.563Z,15.00
2024-04-14T08:13:57.789Z,15.10
2024-04-14T08:16:25.587Z,14.80
2024-04-14T08:18:52.548Z,15.30
2024-04-14T08:21:20.296Z,15.50
2024-04-14T08:23:47.620Z,15.70
2024-04-14T08:26:14.887Z,15.50
2024-04-14T08:28:42.076Z,15.00
2024-04-14T08:31:09.164Z,15.20
2024-04-14T08:33:36.525Z,14.80
2024-04-14T08:36:04.324Z,15.10
2024-04-14T08:38:31.453Z,14.90
2024-04-14T08:41:00.209Z,15.00
2024-04-14T08:43:28.466Z,14.50
2024-04-14T08:45:58.323Z,14.40
2024-04-14T08:48:27.031Z,14.50
2024-04-14T08:50:56.679Z,15.10
2024-04-14T08:53:26.055Z,15.10
2024-04-14T08:55:53.540Z,14.60
2024-04-14T08:58:22.024Z,14.80
2024-04-14T09:00:53.850Z,14.70
2024-04-14T09:03:20.817Z,14.90
2024-04-14T09:05:48.762Z,15.20
2024-04-14T09:08:15.790Z,15.30
2024-04-14T09:10:42.838Z,15.40
2024-04-14T09:13:10.309Z,15.60
2024-04-14T09:15:42.161Z,15.50
2024-04-14T09:18:09.264Z,15.30
2024-04-14T09:20:36.950Z,15.30
2024-04-14T09:23:03.972Z,15.50
2024-04-14T09:25:31.236Z,15.40
2024-04-14T09:28:05.265Z,15.50
2024-04-14T09:30:32.491Z,16.00
2024-04-14T09:32:59.531Z,15.80
2024-04-14T09:35:27.719Z,14.80
2024-04-14T09:37:58.142Z,14.80
2024-04-14T09:40:26.921Z,14.60
2024-04-14T09:42:59.711Z,14.50
2024-04-14T09:45:26.862Z,14.80
2024-04-14T09:47:57.498Z,15.10
2024-04-14T09:50:25.423Z,15.30
2024-04-14T09:52:54.206Z,15.20
2024-04-14T09:55:21.634Z,15.00
2024-04-14T09:57:50.367Z,15.30
2024-04-14T10:00:18.381Z,15.60
2024-04-14T10:03:10.099Z,15.30
2024-04-14T10:05:39.286Z,15.20
2024-04-14T10:08:08.591Z,15.10
2024-04-14T10:10:35.876Z,14.80
2024-04-14T10:13:08.375Z,15.30
2024-04-14T10:15:35.674Z,15.70
2024-04-14T10:18:19.396Z,16.00
2024-04-14T10:20:49.144Z,15.80
2024-04-14T10:23:20.811Z,16.50
2024-04-14T10:25:52.289Z,16.40
2024-04-14T10:28:24.008Z,16.00
2024-04-14T10:31:07.481Z,16.00
2024-04-14T10:33:34.599Z,16.20
2024-04-14T10:36:06.384Z,15.90
2024-04-14T10:38:35.660Z,15.40
2024-04-14T10:41:03.106Z,15.80
2024-04-14T10:43:31.269Z,16.20
2024-04-14T10:46:02.702Z,16.20
2024-04-14T10:48:30.768Z,15.80
2024-04-14T10:50:57.878Z,16.30
2024-04-14T10:53:24.793Z,15.70
2024-04-14T10:55:51.689Z,15.30
2024-04-14T10:58:18.812Z,15.10
2024-04-14T11:00:46.571Z,15.00
2024-04-14T11:03:13.844Z,15.00
2024-04-14T11:05:41.144Z,15.20
2024-04-14T11:08:13.519Z,15.30
2024-04-14T11:10:41.242Z,15.60
2024-04-14T11:13:09.457Z,15.70
2024-04-14T11:15:38.625Z,15.30
2024-04-14T11:18:05.731Z,15.80
2024-04-14T11:20:32.900Z,16.00
2024-04-14T11:23:03.661Z,15.70
2024-04-14T11:25:31.802Z,16.00
2024-04-14T11:27:59.070Z,16.20
2024-04-14T11:30:33.389Z,16.00
2024-04-14T11:33:04.230Z,15.80
2024-04-14T11:35:31.637Z,15.80
2024-04-14T11:37:58.518Z,15.10
2024-04-14T11:40:26.795Z,15.00
2024-04-14T11:42:54.101Z,15.00
2024-04-14T11:45:21.194Z,15.30
2024-04-14T11:47:48.392Z,15.20
2024-04-14T11:50:15.477Z,15.20
2024-04-14T11:52:42.699Z,15.90
2024-04-14T11:55:10.774Z,15.80
2024-04-14T11:57:37.808Z,16.10
2024-04-14T12:00:05.800Z,16.40
2024-04-14T12:02:32.985Z,16.50
2024-04-14T12:04:59.982Z,16.70
2024-04-14T12:07:26.953Z,15.80
2024-04-14T12:09:54.179Z,15.40
2024-04-14T12:12:21.201Z,15.30
2024-04-14T12:14:48.217Z,15.50
2024-04-14T12:17:15.403Z,15.60
2024-04-14T12:19:42.432Z,15.80
2024-04-14T12:22:09.459Z,16.10
2024-04-14T12:24:36.728Z,16.10
2024-04-14T12:27:04.802Z,16.40
2024-04-14T12:29:32.667Z,16.10
2024-04-14T12:31:59.836Z,16.30
2024-04-14T12:34:26.977Z,16.40
2024-04-14T12:36:53.933Z,16.60
2024-04-14T12:39:27.487Z,16.80
2024-04-14T12:41:57.785Z,16.90
2024-04-14T12:44:24.875Z,17.20
2024-04-14T12:46:51.978Z,17.10
2024-04-14T12:49:28.808Z,17.20
2024-04-14T12:52:00.113Z,16.60
2024-04-14T12:54:27.805Z,16.10
2024-04-14T12:56:55.217Z,16.10
2024-04-14T12:59:22.189Z,16.70
2024-04-14T13:01:50.064Z,17.10
2024-04-14T13:04:17.494Z,16.90
2024-04-14T13:06:44.577Z,16.80
2024-04-14T13:09:11.524Z,16.50
2024-04-14T13:11:38.838Z,15.80
2024-04-14T13:14:05.914Z,15.70
2024-04-14T13:16:32.793Z,15.40
2024-04-14T13:19:00.641Z,15.10
2024-04-14T13:21:29.845Z,15.30
2024-04-14T13:23:56.882Z,15.70
2024-04-14T13:26:24.031Z,15.40
2024-04-14T13:28:51.286Z,15.20
2024-04-14T13:31:18.432Z,15.40
2024-04-14T13:33:45.698Z,15.00
2024-04-14T13:36:13.162Z,14.70
2024-04-14T13:38:40.116Z,15.00
2024-04-14T13:41:08.457Z,15.30
2024-04-14T13:43:35.390Z,15.30
2024-04-14T13:46:02.472Z,15.10
2024-04-14T13:48:29.646Z,14.90
2024-04-14T13:50:56.629Z,14.70
2024-04-14T13:53:23.494Z,15.10
2024-04-14T13:55:50.586Z,15.30
2024-04-14T13:58:21.438Z,15.30
2024-04-14T14:00:49.351Z,15.80
2024-04-14T14:03:16.736Z,15.80
2024-04-14T14:05:43.620Z,15.20
2024-04-14T14:08:10.590Z,15.50
2024-04-14T14:10:37.717Z,15.30
2024-04-14T14:13:06.052Z,15.70
2024-04-14T14:15:32.986Z,15.80
2024-04-14T14:18:00.233Z,16.00
2024-04-14T14:20:27.162Z,16.10
2024-04-14T14:22:54.146Z,15.90
2024-04-14T14:25:22.420Z,15.80
2024-04-14T14:27:49.968Z,16.00
2024-04-14T14:30:16.904Z,15.70
2024-04-14T14:32:44.059Z,15.60
2024-04-14T14:35:29.713Z,15.20
2024-04-14T14:37:58.702Z,15.40
2024-04-14T14:40:26.933Z,15.30
2024-04-14T14:42:53.829Z,15.00
2024-04-14T14:45:21.033Z,15.00
2024-04-14T14:47:50.606Z,15.00
2024-04-14T14:50:17.714Z,15.20
2024-04-14T14:52:45.419Z,15.50
2024-04-14T14:55:12.343Z,15.40
2024-04-14T14:57:39.291Z,15.70
2024-04-14T15:00:10.743Z,15.40
2024-04-14T15:02:39.553Z,15.00
2024-04-14T15:05:07.036Z,15.30
2024-04-14T15:10:18.896Z,15.60
2024-04-14T15:12:45.831Z,15.30
2024-04-14T15:15:13.141Z,15.20
2024-04-14T15:17:40.365Z,15.40
2024-04-14T15:20:08.214Z,15.10
2024-04-14T15:22:35.224Z,15.20
2024-04-14T15:25:02.547Z,15.10
2024-04-14T15:27:29.805Z,15.20
2024-04-14T15:29:56.651Z,15.10
2024-04-14T15:32:24.022Z,15.00
2024-04-14T15:34:50.927Z,15.20
2024-04-14T15:37:17.827Z,15.40
2024-04-14T15:39:46.940Z,15.60
2024-04-14T15:42:13.850Z,15.60
2024-04-14T15:44:40.842Z,15.60
2024-04-14T15:47:08.013Z,15.60
2024-04-14T15:49:35.040Z,15.40
2024-04-14T15:52:01.977Z,15.10
2024-04-14T15:54:28.974Z,15.20
2024-04-14T15:56:55.877Z,15.00
2024-04-14T15:59:22.797Z,15.00
2024-04-14T16:01:49.876Z,14.90
2024-04-14T16:04:17.000Z,15.20
2024-04-14T16:06:44.013Z,15.10
2024-04-14T16:09:11.082Z,14.90
2024-04-14T16:11:38.029Z,14.70
2024-04-14T16:14:05.047Z,14.70
2024-04-14T16:16:32.336Z,14.90
2024-04-14T16:18:59.383Z,14.90
2024-04-14T16:21:26.893Z,14.80
2024-04-14T16:23:54.184Z,14.70
2024-04-14T16:26:21.166Z,14.50
2024-04-14T16:28:48.269Z,14.40
2024-04-14T16:31:15.982Z,14.40
2024-04-14T16:33:43.873Z,14.50
2024-04-14T16:36:12.288Z,14.60
2024-04-14T16:38:39.847Z,14.60
2024-04-14T16:41:07.936Z,14.60
2024-04-14T16:43:34.857Z,14.50
2024-04-14T16:46:02.150Z,14.50
2024-04-14T16:48:29.445Z,14.30
2024-04-14T16:50:56.500Z,14.20
2024-04-14T16:53:23.674Z,14.30
2024-04-14T16:55:50.697Z,14.30
2024-04-14T16:58:18.214Z,14.40
2024-04-14T17:00:45.807Z,14.40
2024-04-14T17:03:12.914Z,14.40
2024-04-14T17:05:40.299Z,14.50
2024-04-14T17:08:07.546Z,14.30
2024-04-14T17:10:34.553Z,14.20
2024-04-14T17:13:01.968Z,14.10
2024-04-14T17:15:28.971Z,14.10
2024-04-14T17:17:56.127Z,14.00
2024-04-14T17:20:23.534Z,14.00
2024-04-14T17:22:50.409Z,14.00
2024-04-14T17:25:17.554Z,13.90
2024-04-14T17:27:44.730Z,13.90
2024-04-14T17:30:11.614Z,13.80
2024-04-14T17:32:38.738Z,13.80
2024-04-14T17:35:06.768Z,13.80
2024-04-14T17:37:33.715Z,13.70
2024-04-14T17:40:03.409Z,13.70
2024-04-14T17:42:32.794Z,13.60
2024-04-14T17:44:59.747Z,13.60
2024-04-14T17:47:27.056Z,13.50
2024-04-14T17:49:54.014Z,13.40
2024-04-14T17:52:21.309Z,13.40
2024-04-14T17:54:48.473Z,13.40
2024-04-14T17:57:16.437Z,13.40
2024-04-14T17:59:43.402Z,13.30
2024-04-14T18:02:10.792Z,13.30
2024-04-14T18:04:38.778Z,13.20
2024-04-14T18:07:05.939Z,13.40
2024-04-14T18:09:32.855Z,13.10
2024-04-14T18:11:59.916Z,13.10
2024-04-14T18:14:27.127Z,13.00
2024-04-14T18:16:54.210Z,13.00
2024-04-14T18:19:21.133Z,13.00
2024-04-14T18:21:48.064Z,12.90
2024-04-14T18:24:15.079Z,12.90
2024-04-14T18:26:42.087Z,12.90
2024-04-14T18:29:09.357Z,12.90
2024-04-14T18:31:36.786Z,12.80
2024-04-14T18:34:03.963Z,12.80
2024-04-14T18:36:31.141Z,12.80
2024-04-14T18:38:58.334Z,12.70
2024-04-14T18:41:25.357Z,12.70
2024-04-14T18:43:52.656Z,12.70
2024-04-14T18:46:19.819Z,12.70
2024-04-14T18:48:46.933Z,12.70
2024-04-14T18:51:13.882Z,12.60
2024-04-14T18:53:40.826Z,12.70
2024-04-14T18:56:08.840Z,12.60
2024-04-14T18:58:35.812Z,12.60
2024-04-14T19:01:04.390Z,12.60
2024-04-14T19:03:32.616Z,12.60
2024-04-14T19:06:04.053Z,12.60
2024-04-14T19:08:32.584Z,12.50
2024-04-14T19:10:59.744Z,12.50
2024-04-14T19:13:26.756Z,12.50
2024-04-14T19:16:04.281Z,12.50
2024-04-14T19:18:31.828Z,12.40
2024-04-14T19:20:58.873Z,12.40
2024-04-14T19:23:26.544Z,12.40
2024-04-14T19:26:10.402Z,12.40
2024-04-14T19:28:37.916Z,12.40
2024-04-14T19:31:05.882Z,12.30
2024-04-14T19:33:33.010Z,12.30
2024-04-14T19:36:00.118Z,12.30
2024-04-14T19:38:28.245Z,12.30
2024-04-14T19:40:57.335Z,12.30
2024-04-14T19:43:24.424Z,12.20
2024-04-14T19:45:52.543Z,12.20
2024-04-14T19:48:19.675Z,12.10
2024-04-14T19:50:46.821Z,12.10
2024-04-14T19:53:13.822Z,12.10
2024-04-14T19:55:41.456Z,12.00
2024-04-14T19:58:08.920Z,12.00
2024-04-14T20:00:36.467Z,12.00
2024-04-14T20:03:04.262Z,12.00
2024-04-14T20:05:31.462Z,12.00
2024-04-14T20:07:58.646Z,11.90
2024-04-14T20:10:26.893Z,12.00
2024-04-14T20:12:54.591Z,11.90
2024-04-14T20:15:22.396Z,11.80
2024-04-14T20:17:50.146Z,11.80
2024-04-14T20:20:17.507Z,11.70
2024-04-14T20:22:44.577Z,11.70
2024-04-14T20:25:11.661Z,11.70
2024-04-14T20:27:39.338Z,11.60
2024-04-14T20:30:08.346Z,11.60
2024-04-14T20:32:35.470Z,11.60
2024-04-14T20:35:02.943Z,11.60
2024-04-14T20:37:29.875Z,11.50
2024-04-14T20:39:56.912Z,11.50
2024-04-14T20:42:24.092Z,11.50
2024-04-14T20:44:51.041Z,11.40
2024-04-14T20:47:21.594Z,11.40
2024-04-14T20:49:51.819Z,11.40
2024-04-14T20:52:19.591Z,11.40
2024-04-14T20:54:47.341Z,11.30
2024-04-14T20:57:14.993Z,11.30
2024-04-14T20:59:41.963Z,11.30
2024-04-14T21:02:09.306Z,11.30
2024-04-14T21:04:45.603Z,11.30
2024-04-14T21:07:16.797Z,11.30
2024-04-14T21:09:44.230Z,11.30
2024-04-14T21:12:11.262Z,11.30
2024-04-14T21:14:38.554Z,11.20
2024-04-14T21:17:05.753Z,11.20
2024-04-14T21:19:32.924Z,11.20
2024-04-14T21:22:00.087Z,11.20
2024-04-14T21:24:27.335Z,11.20
2024-04-14T21:26:54.243Z,11.20
2024-04-14T21:29:21.314Z,11.10
2024-04-14T21:31:48.667Z,11.10
2024-04-14T21:34:16.530Z,11.10
2024-04-14T21:36:45.836Z,11.10
2024-04-14T21:39:13.161Z,11.10
2024-04-14T21:41:41.209Z,11.10
2024-04-14T21:44:08.229Z,11.10
2024-04-14T21:46:35.580Z,11.10
2024-04-14T21:49:02.613Z,11.00
2024-04-14T21:51:29.605Z,11.00
2024-04-14T21:53:56.928Z,10.90
2024-04-14T21:56:23.982Z,10.90
2024-04-14T21:58:51.445Z,11.00
2024-04-14T22:01:19.086Z,10.90
2024-04-14T22:03:46.652Z,10.90
2024-04-14T22:06:14.066Z,10.90
2024-04-14T22:08:41.886Z,10.90
2024-04-14T22:11:10.362Z,11.00
2024-04-14T22:13:38.470Z,11.00
2024-04-14T22:16:06.009Z,11.00
2024-04-14T22:18:33.189Z,11.00
2024-04-14T22:21:00.844Z,11.00
2024-04-14T22:23:27.830Z,11.10
2024-04-14T22:25:55.812Z,11.10
2024-04-14T22:28:23.019Z,11.10
2024-04-14T22:30:50.214Z,10.90
2024-04-14T22:33:17.309Z,10.90
2024-04-14T22:35:44.744Z,10.90
2024-04-14T22:38:11.658Z,10.90
2024-04-14T22:40:38.690Z,10.90
2024-04-14T22:43:05.945Z,10.80
2024-04-14T22:45:32.865Z,10.90
2024-04-14T22:47:59.824Z,10.80
2024-04-14T22:50:26.959Z,10.80
2024-04-14T22:52:53.884Z,10.80
2024-04-14T22:55:20.849Z,10.90
2024-04-14T22:57:48.049Z,11.00
2024-04-14T23:00:15.110Z,11.00
2024-04-14T23:02:42.012Z,10.90
2024-04-14T23:05:09.132Z,10.90
2024-04-14T23:07:36.096Z,11.00
2024-04-14T23:10:03.124Z,11.00
2024-04-14T23:12:30.369Z,10.90
2024-04-14T23:14:57.278Z,10.60
2024-04-14T23:17:24.215Z,10.50
2024-04-14T23:19:51.316Z,10.30
2024-04-14T23:22:18.746Z,10.20
2024-04-14T23:24:45.756Z,10.00
2024-04-14T23:27:12.905Z,10.00
2024-04-14T23:29:39.779Z,10.00
2024-04-14T23:32:07.409Z,9.90
2024-04-14T23:34:34.982Z,9.80
2024-04-14T23:37:02.124Z,9.80
2024-04-14T23:39:29.043Z,9.80
2024-04-14T23:41:58.247Z,9.80
2024-04-14T23:44:25.296Z,9.80
2024-04-14T23:46:52.247Z,9.70
2024-04-14T23:49:19.393Z,9.70
2024-04-14T23:51:46.311Z,9.60
2024-04-14T23:54:13.220Z,9.40
2024-04-14T23:56:40.278Z,9.40
2024-04-14T23:59:07.167Z,9.30
